| time (UTC) | temp F | wind direction | speed knots | gust knots | rain 1hr in | rain 24hr in | rain mn in | humidity % | barometer mb |
| 20260507100206 | 50 | 127 | 0.0 | 0.0 | 0.00 | 0.58 | 0.36 | 96 | 1010.3 |
| 20260507095704 | 51 | 117 | 0.0 | 0.0 | 0.00 | 0.58 | 0.36 | 96 | 1010.3 |
| 20260507095204 | 50 | 335 | 0.0 | 0.0 | 0.00 | 0.58 | 0.36 | 96 | 1010.2 |
| 20260507094704 | 50 | 0 | 0.0 | 0.0 | 0.00 | 0.58 | 0.36 | 96 | 1010.2 |
| 20260507094204 | 50 | 355 | 0.0 | 0.0 | 0.00 | 0.58 | 0.36 | 96 | 1010.1 |
| 20260507093704 | 50 | 355 | 0.0 | 0.0 | 0.00 | 0.58 | 0.36 | 95 | 1010.1 |
| 20260507093204 | 50 | 344 | 0.0 | 0.0 | 0.00 | 0.58 | 0.36 | 95 | 1010.1 |
| 20260507092704 | 50 | 309 | 0.0 | 1.7 | 0.00 | 0.58 | 0.36 | 95 | 1010.1 |
| 20260507092204 | 50 | 236 | 0.0 | 4.3 | 0.00 | 0.58 | 0.36 | 95 | 1010.0 |
| 20260507091704 | 50 | 290 | 0.0 | 4.3 | 0.00 | 0.58 | 0.36 | 95 | 1009.9 |
| 20260507091204 | 50 | 355 | 0.0 | 4.3 | 0.00 | 0.58 | 0.36 | 95 | 1009.9 |
| 20260507090204 | 51 | 35 | 0.0 | 3.5 | 0.00 | 0.58 | 0.36 | 95 | 1009.7 |
| 20260507085704 | 51 | 28 | 0.0 | 5.2 | 0.00 | 0.58 | 0.36 | 96 | 1009.6 |
| 20260507085204 | 51 | 22 | 0.0 | 5.2 | 0.00 | 0.58 | 0.36 | 96 | 1009.5 |
| 20260507084704 | 51 | 312 | 0.0 | 5.2 | 0.00 | 0.58 | 0.36 | 96 | 1009.5 |
| 20260507084204 | 51 | 56 | 0.0 | 1.7 | 0.00 | 0.58 | 0.36 | 96 | 1009.5 |
| 20260507083704 | 51 | 84 | 0.0 | 1.7 | 0.00 | 0.58 | 0.36 | 96 | 1009.4 |
| 20260507083204 | 50 | 31 | 0.0 | 1.7 | 0.00 | 0.58 | 0.36 | 96 | 1009.4 |
| 20260507082704 | 50 | 109 | 0.0 | 1.7 | 0.00 | 0.58 | 0.36 | 96 | 1009.4 |
| 20260507082204 | 50 | 49 | 0.0 | 0.9 | 0.00 | 0.58 | 0.36 | 96 | 1009.3 |
| 20260507081704 | 50 | 49 | 0.0 | 0.9 | 0.00 | 0.58 | 0.36 | 96 | 1009.2 |
| 20260507081203 | 50 | 49 | 0.0 | 0.9 | 0.00 | 0.58 | 0.36 | 96 | 1009.1 |
| 20260507080704 | 50 | 49 | 0.0 | 0.9 | 0.00 | 0.58 | 0.36 | 96 | 1009.1 |
| 20260507080207 | 50 | 49 | 0.0 | 0.0 | 0.00 | 0.58 | 0.36 | 96 | 1009.1 |
| 20260507075704 | 50 | 124 | 0.0 | 0.0 | 0.00 | 0.58 | 0.36 | 96 | 1009.0 |
| 20260507075204 | 50 | 124 | 0.0 | 0.0 | 0.01 | 0.58 | 0.36 | 96 | 1008.9 |
| 20260507074705 | 50 | 123 | 0.0 | 0.0 | 0.02 | 0.58 | 0.36 | 96 | 1008.9 |
| 20260507074204 | 50 | 25 | 0.0 | 0.0 | 0.02 | 0.58 | 0.36 | 96 | 1008.8 |
| 20260507073704 | 50 | 88 | 0.0 | 0.0 | 0.02 | 0.58 | 0.36 | 96 | 1008.8 |
| 20260507072704 | 50 | 88 | 0.0 | 1.7 | 0.02 | 0.58 | 0.36 | 96 | 1008.7 |
| 20260507072204 | 50 | 88 | 0.0 | 0.0 | 0.03 | 0.58 | 0.36 | 96 | 1008.7 |
| 20260507071204 | 50 | 355 | 0.0 | 0.0 | 0.04 | 0.58 | 0.36 | 96 | 1008.7 |
| 20260507070704 | 50 | 112 | 0.0 | 1.7 | 0.05 | 0.58 | 0.36 | 96 | 1008.7 |
| 20260507070204 | 50 | 112 | 0.0 | 1.7 | 0.05 | 0.58 | 0.36 | 96 | 1008.6 |
| 20260507065204 | 50 | 5 | 0.0 | 5.2 | 0.05 | 0.57 | 0.35 | 96 | 1008.6 |
| 20260507064704 | 50 | 355 | 0.0 | 5.2 | 0.04 | 0.57 | 0.35 | 96 | 1008.5 |
| 20260507064204 | 50 | 355 | 0.0 | 1.7 | 0.05 | 0.57 | 0.35 | 96 | 1008.4 |
| 20260507063704 | 50 | 350 | 0.0 | 0.9 | 0.05 | 0.57 | 0.35 | 96 | 1008.4 |
| 20260507063204 | 50 | 96 | 0.0 | 0.9 | 0.05 | 0.57 | 0.35 | 96 | 1008.4 |
| 20260507062704 | 50 | 96 | 0.0 | 0.9 | 0.05 | 0.57 | 0.34 | 96 | 1008.3 |
| 20260507062204 | 50 | 119 | 0.0 | 0.9 | 0.04 | 0.56 | 0.33 | 96 | 1008.2 |
| 20260507061704 | 50 | 119 | 0.0 | 1.7 | 0.05 | 0.56 | 0.33 | 96 | 1008.2 |
| 20260507060707 | 50 | 132 | 0.0 | 1.7 | 0.03 | 0.54 | 0.31 | 96 | 1008.0 |
| 20260507060204 | 50 | 132 | 0.0 | 1.7 | 0.04 | 0.54 | 0.31 | 96 | 1007.9 |
| 20260507055704 | 50 | 16 | 0.0 | 1.7 | 0.04 | 0.54 | 0.31 | 96 | 1007.8 |
| 20260507055204 | 50 | 16 | 0.0 | 1.7 | 0.04 | 0.54 | 0.31 | 96 | 1007.8 |
| 20260507054704 | 50 | 16 | 0.0 | 1.7 | 0.04 | 0.54 | 0.31 | 96 | 1007.8 |
| 20260507054204 | 50 | 15 | 0.0 | 1.7 | 0.04 | 0.53 | 0.30 | 96 | 1007.7 |
| 20260507053704 | 50 | 12 | 0.0 | 1.7 | 0.04 | 0.53 | 0.30 | 96 | 1007.6 |
| 20260507052704 | 50 | 42 | 0.0 | 0.0 | 0.05 | 0.52 | 0.29 | 96 | 1007.6 |
| 20260507051704 | 51 | 42 | 0.0 | 0.0 | 0.05 | 0.51 | 0.28 | 96 | 1007.5 |
| 20260507051204 | 51 | 42 | 0.0 | 0.9 | 0.06 | 0.51 | 0.28 | 96 | 1007.5 |
| 20260507050704 | 51 | 42 | 0.0 | 0.9 | 0.06 | 0.51 | 0.28 | 96 | 1007.4 |
| 20260507045704 | 51 | 42 | 0.0 | 0.0 | 0.06 | 0.50 | 0.27 | 96 | 1007.3 |
| 20260507045204 | 51 | 42 | 0.0 | 0.0 | 0.06 | 0.50 | 0.27 | 96 | 1007.3 |
| 20260507044704 | 51 | 42 | 0.0 | 0.0 | 0.07 | 0.50 | 0.27 | 96 | 1007.3 |
| 20260507044204 | 51 | 42 | 0.0 | 0.0 | 0.07 | 0.49 | 0.26 | 96 | 1007.1 |
| 20260507043707 | 51 | 42 | 0.0 | 0.9 | 0.07 | 0.48 | 0.25 | 96 | 1007.1 |
| 20260507043204 | 51 | 42 | 0.0 | 0.9 | 0.08 | 0.48 | 0.25 | 96 | 1007.1 |
| 20260507042704 | 51 | 42 | 0.0 | 0.9 | 0.08 | 0.47 | 0.24 | 96 | 1007.1 |
| 20260507042204 | 51 | 42 | 0.0 | 0.0 | 0.08 | 0.46 | 0.24 | 96 | 1007.0 |
| 20260507041704 | 51 | 42 | 0.0 | 0.0 | 0.09 | 0.46 | 0.24 | 96 | 1007.0 |
| 20260507040704 | 51 | 42 | 0.0 | 0.0 | 0.09 | 0.45 | 0.22 | 96 | 1006.9 |
| 20260507040204 | 51 | 42 | 0.0 | 0.0 | 0.09 | 0.44 | 0.21 | 96 | 1006.9 |
| 20260507035704 | 51 | 42 | 0.0 | 0.0 | 0.09 | 0.43 | 0.20 | 96 | 1006.8 |
| 20260507035207 | 51 | 42 | 0.0 | 0.0 | 0.09 | 0.43 | 0.20 | 96 | 1006.8 |
| 20260507034704 | 51 | 42 | 0.0 | 0.0 | 0.09 | 0.43 | 0.20 | 96 | 1006.7 |
| 20260507034204 | 51 | 42 | 0.0 | 0.9 | 0.09 | 0.42 | 0.19 | 96 | 1006.7 |
| 20260507033704 | 51 | 42 | 0.0 | 0.9 | 0.09 | 0.41 | 0.18 | 96 | 1006.6 |
| 20260507032704 | 52 | 42 | 0.0 | 0.0 | 0.09 | 0.39 | 0.17 | 96 | 1006.5 |
| 20260507031704 | 52 | 42 | 0.0 | 0.0 | 0.08 | 0.38 | 0.15 | 96 | 1006.5 |
| 20260507031204 | 52 | 42 | 0.0 | 0.0 | 0.08 | 0.37 | 0.14 | 96 | 1006.5 |
| 20260507030204 | 52 | 42 | 0.0 | 0.9 | 0.06 | 0.35 | 0.13 | 96 | 1006.4 |
| 20260507025704 | 52 | 42 | 0.0 | 0.0 | 0.06 | 0.35 | 0.12 | 96 | 1006.4 |
| 20260507024704 | 52 | 42 | 0.0 | 0.0 | 0.06 | 0.33 | 0.10 | 96 | 1006.4 |
| 20260507024204 | 52 | 42 | 0.0 | 0.0 | 0.04 | 0.31 | 0.09 | 96 | 1006.3 |
| 20260507023704 | 52 | 42 | 0.0 | 0.0 | 0.03 | 0.31 | 0.08 | 96 | 1006.4 |
| 20260507023204 | 53 | 42 | 0.0 | 0.0 | 0.03 | 0.31 | 0.08 | 96 | 1006.4 |
| 20260507022704 | 53 | 42 | 0.0 | 0.0 | 0.04 | 0.31 | 0.08 | 96 | 1006.4 |
| 20260507022204 | 53 | 42 | 0.0 | 0.0 | 0.03 | 0.30 | 0.07 | 96 | 1006.4 |
| 20260507021732 | 53 | 42 | 0.0 | 0.0 | 0.03 | 0.30 | 0.07 | 96 | 1006.5 |
| 20260507021219 | 53 | 42 | 0.0 | 0.0 | 0.03 | 0.29 | 0.06 | 96 | 1006.5 |
| 20260507020704 | 53 | 42 | 0.0 | 0.0 | 0.03 | 0.29 | 0.06 | 96 | 1006.4 |
| 20260507020204 | 53 | 42 | 0.0 | 0.0 | 0.02 | 0.28 | 0.06 | 96 | 1006.4 |
| 20260507015704 | 53 | 42 | 0.0 | 0.0 | 0.02 | 0.28 | 0.06 | 96 | 1006.4 |
| 20260507015204 | 53 | 42 | 0.0 | 0.0 | 0.03 | 0.28 | 0.06 | 96 | 1006.4 |
| 20260507014208 | 53 | 42 | 0.0 | 0.0 | 0.03 | 0.28 | 0.05 | 96 | 1006.4 |
| 20260507013204 | 53 | 42 | 0.0 | 0.0 | 0.03 | 0.27 | 0.04 | 96 | 1006.4 |
| 20260507012728 | 53 | 42 | 0.0 | 0.0 | 0.03 | 0.27 | 0.04 | 96 | 1006.3 |
| 20260507012204 | 53 | 42 | 0.0 | 0.0 | 0.03 | 0.27 | 0.04 | 96 | 1006.3 |
| 20260507011704 | 53 | 42 | 0.0 | 0.0 | 0.04 | 0.27 | 0.04 | 96 | 1006.3 |
| 20260507011204 | 53 | 42 | 0.0 | 0.0 | 0.03 | 0.26 | 0.03 | 96 | 1006.3 |
| 20260507010704 | 53 | 42 | 0.0 | 0.0 | 0.03 | 0.26 | 0.03 | 96 | 1006.3 |
| 20260507010204 | 53 | 42 | 0.0 | 0.0 | 0.03 | 0.26 | 0.03 | 96 | 1006.3 |
| 20260507005207 | 53 | 42 | 0.0 | 0.0 | 0.02 | 0.25 | 0.02 | 96 | 1006.3 |
| 20260507004704 | 53 | 42 | 0.0 | 0.0 | 0.02 | 0.24 | 0.02 | 96 | 1006.3 |
| 20260507003704 | 53 | 42 | 0.0 | 0.0 | 0.02 | 0.24 | 0.02 | 96 | 1006.2 |
| 20260507003204 | 53 | 42 | 0.0 | 0.0 | 0.01 | 0.24 | 0.01 | 95 | 1006.1 |
| 20260507002704 | 53 | 42 | 0.0 | 0.0 | 0.01 | 0.24 | 0.01 | 95 | 1006.1 |
| 20260507002204 | 53 | 42 | 0.0 | 0.0 | 0.01 | 0.24 | 0.01 | 96 | 1006.0 |
| 20260507001704 | 53 | 42 | 0.0 | 0.0 | 0.00 | 0.23 | 0.00 | 96 | 1006.0 |
| 20260507001204 | 53 | 42 | 0.0 | 0.0 | 0.00 | 0.23 | 0.00 | 96 | 1005.9 |
| 20260507000704 | 53 | 42 | 0.0 | 0.0 | 0.00 | 0.23 | 0.00 | 96 | 1005.9 |
| 20260507000205 | 53 | 42 | 0.0 | 0.0 | 0.00 | 0.23 | 0.00 | 95 | 1005.9 |
| 20260506235704 | 53 | 42 | 0.0 | 0.0 | 0.00 | 0.24 | 0.00 | 95 | 1005.8 |
| 20260506235207 | 53 | 42 | 0.0 | 0.0 | 0.00 | 0.24 | 0.00 | 95 | 1005.9 |
| 20260506234204 | 53 | 42 | 0.0 | 0.0 | 0.00 | 0.24 | 0.00 | 95 | 1005.8 |
| 20260506233704 | 53 | 42 | 0.0 | 0.0 | 0.00 | 0.24 | 0.00 | 95 | 1005.7 |
| 20260506233204 | 53 | 42 | 0.0 | 0.0 | 0.00 | 0.24 | 0.00 | 95 | 1005.7 |
| 20260506232204 | 53 | 42 | 0.0 | 0.0 | 0.00 | 0.24 | 0.00 | 95 | 1005.5 |
| 20260506231222 | 53 | 42 | 0.0 | 0.0 | 0.00 | 0.24 | 0.00 | 95 | 1005.4 |
| 20260506230704 | 53 | 42 | 0.0 | 0.0 | 0.00 | 0.24 | 0.00 | 95 | 1005.3 |
| 20260506230204 | 53 | 42 | 0.0 | 0.0 | 0.00 | 0.24 | 0.00 | 95 | 1005.3 |
| 20260506225704 | 53 | 42 | 0.0 | 0.0 | 0.00 | 0.24 | 0.00 | 95 | 1005.2 |
| 20260506225221 | 53 | 42 | 0.0 | 0.0 | 0.00 | 0.24 | 0.00 | 95 | 1005.2 |
| 20260506224704 | 53 | 42 | 0.0 | 0.0 | 0.00 | 0.24 | 0.00 | 95 | 1005.2 |
| 20260506224204 | 53 | 42 | 0.0 | 0.0 | 0.00 | 0.24 | 0.00 | 95 | 1005.2 |
| 20260506223704 | 53 | 42 | 0.0 | 0.0 | 0.00 | 0.24 | 0.00 | 95 | 1005.2 |
| 20260506223204 | 53 | 42 | 0.0 | 0.0 | 0.00 | 0.24 | 0.00 | 95 | 1005.2 |
| 20260506222704 | 53 | 42 | 0.0 | 0.0 | 0.00 | 0.24 | 0.00 | 95 | 1005.1 |
| 20260506222204 | 53 | 42 | 0.0 | 0.0 | 0.00 | 0.25 | 0.00 | 95 | 1005.1 |
| 20260506221722 | 53 | 42 | 0.0 | 0.0 | 0.01 | 0.25 | 0.00 | 95 | 1005.2 |
| 20260506221207 | 53 | 42 | 0.0 | 0.0 | 0.03 | 0.26 | 0.00 | 95 | 1005.2 |
| 20260506220704 | 53 | 42 | 0.0 | 0.0 | 0.05 | 0.27 | 0.00 | 94 | 1005.2 |
| 20260506220207 | 53 | 272 | 0.0 | 0.0 | 0.08 | 0.28 | 0.28 | 94 | 1005.1 |
| 20260506215704 | 53 | 272 | 0.0 | 0.0 | 0.10 | 0.30 | 0.28 | 94 | 1005.2 |
| 20260506215204 | 53 | 272 | 0.0 | 0.0 | 0.13 | 0.31 | 0.28 | 94 | 1005.3 |
| 20260506214704 | 54 | 272 | 0.0 | 0.0 | 0.16 | 0.33 | 0.28 | 94 | 1005.4 |
| 20260506214204 | 54 | 272 | 0.0 | 0.0 | 0.18 | 0.35 | 0.28 | 94 | 1005.5 |
| 20260506213705 | 54 | 57 | 0.0 | 0.0 | 0.20 | 0.37 | 0.28 | 93 | 1005.4 |
| 20260506213204 | 54 | 57 | 0.0 | 0.0 | 0.22 | 0.38 | 0.28 | 93 | 1005.2 |
| 20260506212704 | 54 | 57 | 0.0 | 0.0 | 0.22 | 0.39 | 0.28 | 93 | 1005.0 |
| 20260506212205 | 54 | 57 | 0.0 | 0.0 | 0.22 | 0.39 | 0.28 | 93 | 1005.0 |
| 20260506211703 | 55 | 40 | 0.0 | 0.0 | 0.20 | 0.40 | 0.27 | 94 | 1005.1 |
| 20260506211204 | 55 | 40 | 0.0 | 0.0 | 0.18 | 0.40 | 0.24 | 93 | 1005.2 |
| 20260506210704 | 55 | 40 | 0.0 | 0.0 | 0.17 | 0.42 | 0.23 | 93 | 1005.2 |
| 20260506210204 | 55 | 81 | 0.0 | 0.0 | 0.13 | 0.41 | 0.20 | 93 | 1005.2 |
| 20260506205704 | 55 | 92 | 0.0 | 0.0 | 0.10 | 0.41 | 0.17 | 92 | 1005.5 |
| 20260506205204 | 55 | 324 | 0.0 | 0.0 | 0.08 | 0.41 | 0.14 | 92 | 1005.7 |
| 20260506204707 | 56 | 324 | 0.0 | 0.0 | 0.06 | 0.41 | 0.12 | 92 | 1005.6 |
| 20260506203704 | 56 | 278 | 0.0 | 0.0 | 0.02 | 0.40 | 0.08 | 91 | 1005.5 |
| 20260506203204 | 56 | 290 | 0.0 | 0.0 | 0.00 | 0.40 | 0.06 | 91 | 1005.3 |
| 20260506202704 | 56 | 288 | 0.0 | 0.0 | 0.00 | 0.43 | 0.06 | 91 | 1005.3 |
| 20260506202204 | 57 | 5 | 0.0 | 0.0 | 0.00 | 0.44 | 0.06 | 91 | 1005.3 |
| 20260506201204 | 56 | 268 | 0.0 | 0.0 | 0.00 | 0.46 | 0.06 | 91 | 1005.1 |
| 20260506200704 | 57 | 34 | 0.0 | 0.0 | 0.00 | 0.46 | 0.06 | 91 | 1004.9 |
| 20260506195704 | 57 | 46 | 0.0 | 0.0 | 0.00 | 0.46 | 0.06 | 91 | 1004.7 |
| 20260506195204 | 57 | 77 | 0.0 | 0.0 | 0.00 | 0.47 | 0.06 | 90 | 1004.6 |
| 20260506194728 | 57 | 89 | 0.0 | 0.0 | 0.00 | 0.47 | 0.06 | 90 | 1004.6 |
| 20260506194204 | 57 | 89 | 0.0 | 0.0 | 0.00 | 0.48 | 0.06 | 90 | 1004.4 |
| 20260506193704 | 57 | 37 | 0.0 | 0.0 | 0.00 | 0.49 | 0.06 | 90 | 1004.4 |
| 20260506193204 | 57 | 21 | 0.0 | 0.0 | 0.00 | 0.49 | 0.06 | 90 | 1004.4 |
| 20260506192204 | 57 | 81 | 0.0 | 0.0 | 0.00 | 0.50 | 0.06 | 90 | 1004.4 |
| 20260506191704 | 58 | 81 | 0.0 | 0.0 | 0.00 | 0.51 | 0.06 | 89 | 1004.3 |
| 20260506191204 | 58 | 81 | 0.0 | 0.0 | 0.00 | 0.52 | 0.06 | 89 | 1004.2 |
| 20260506190725 | 58 | 81 | 0.0 | 0.0 | 0.00 | 0.53 | 0.06 | 89 | 1004.1 |
| 20260506190204 | 58 | 81 | 0.0 | 0.0 | 0.00 | 0.54 | 0.06 | 89 | 1004.0 |
| 20260506185704 | 58 | 81 | 0.0 | 0.0 | 0.00 | 0.57 | 0.06 | 88 | 1004.0 |
| 20260506184707 | 59 | 70 | 0.0 | 0.0 | 0.00 | 0.59 | 0.06 | 88 | 1003.9 |
| 20260506183704 | 59 | 70 | 0.0 | 0.0 | 0.00 | 0.59 | 0.06 | 87 | 1003.6 |
| 20260506183204 | 59 | 144 | 0.0 | 0.0 | 0.00 | 0.59 | 0.06 | 86 | 1003.6 |
| 20260506182704 | 60 | 144 | 0.0 | 0.0 | 0.00 | 0.59 | 0.06 | 86 | 1003.6 |
| 20260506182203 | 60 | 144 | 0.0 | 0.0 | 0.00 | 0.59 | 0.06 | 85 | 1003.6 |
| 20260506180704 | 61 | 144 | 0.0 | 0.9 | 0.00 | 0.59 | 0.06 | 84 | 1003.6 |
| 20260506180204 | 61 | 144 | 0.0 | 0.9 | 0.00 | 0.59 | 0.06 | 83 | 1003.6 |
| 20260506175705 | 61 | 0 | 0.0 | 0.9 | 0.00 | 0.59 | 0.06 | 83 | 1003.6 |
| 20260506175204 | 62 | 0 | 0.0 | 0.0 | 0.00 | 0.59 | 0.06 | 83 | 1003.5 |
| 20260506174704 | 62 | 0 | 0.0 | 0.0 | 0.00 | 0.59 | 0.06 | 82 | 1003.6 |
| 20260506174204 | 62 | 73 | 0.0 | 0.0 | 0.00 | 0.59 | 0.06 | 81 | 1003.5 |
| 20260506173704 | 63 | 58 | 0.0 | 0.0 | 0.00 | 0.59 | 0.06 | 80 | 1003.5 |
| 20260506173204 | 63 | 56 | 0.0 | 0.0 | 0.00 | 0.59 | 0.06 | 79 | 1003.4 |
| 20260506171204 | 65 | 60 | 0.0 | 0.0 | 0.00 | 0.59 | 0.06 | 76 | 1003.1 |
| 20260506170704 | 66 | 136 | 0.0 | 0.0 | 0.00 | 0.59 | 0.06 | 75 | 1002.9 |
| 20260506165704 | 67 | 280 | 0.0 | 0.0 | 0.00 | 0.59 | 0.06 | 71 | 1002.9 |
| 20260506165204 | 68 | 280 | 0.0 | 0.0 | 0.00 | 0.59 | 0.06 | 65 | 1002.7 |
| 20260506164705 | 68 | 280 | 0.0 | 0.0 | 0.00 | 0.59 | 0.06 | 63 | 1002.6 |
| 20260506163704 | 68 | 280 | 0.0 | 0.0 | 0.00 | 0.59 | 0.06 | 61 | 1002.6 |
| 20260506163204 | 68 | 280 | 0.0 | 0.0 | 0.00 | 0.59 | 0.06 | 60 | 1002.7 |
| 20260506162704 | 68 | 280 | 0.0 | 0.0 | 0.00 | 0.59 | 0.06 | 66 | 1002.7 |
| 20260506162222 | 68 | 280 | 0.0 | 0.0 | 0.00 | 0.59 | 0.06 | 65 | 1002.7 |
| 20260506161704 | 68 | 280 | 0.0 | 0.0 | 0.00 | 0.59 | 0.06 | 62 | 1002.7 |
| 20260506161210 | 69 | 280 | 0.0 | 0.0 | 0.00 | 0.59 | 0.06 | 61 | 1002.8 |
| 20260506160704 | 69 | 280 | 0.0 | 0.0 | 0.00 | 0.59 | 0.06 | 59 | 1002.9 |
| 20260506160219 | 70 | 280 | 0.0 | 0.0 | 0.00 | 0.59 | 0.06 | 55 | 1002.9 |
| 20260506155704 | 71 | 280 | 0.0 | 0.0 | 0.00 | 0.59 | 0.06 | 55 | 1002.9 |
| 20260506155203 | 71 | 298 | 0.0 | 0.0 | 0.00 | 0.59 | 0.06 | 54 | 1002.9 |
| 20260506154704 | 71 | 298 | 0.0 | 0.0 | 0.00 | 0.59 | 0.06 | 58 | 1002.9 |
| 20260506154204 | 71 | 295 | 0.0 | 0.0 | 0.00 | 0.59 | 0.06 | 56 | 1003.0 |
| 20260506153204 | 69 | 300 | 0.0 | 7.8 | 0.00 | 0.59 | 0.06 | 59 | 1003.1 |
| 20260506152703 | 68 | 300 | 0.0 | 7.8 | 0.00 | 0.59 | 0.06 | 59 | 1003.3 |
| 20260506152205 | 68 | 300 | 0.0 | 1.7 | 0.00 | 0.59 | 0.06 | 58 | 1003.3 |
| 20260506151705 | 68 | 313 | 0.0 | 0.9 | 0.00 | 0.59 | 0.06 | 60 | 1003.3 |
| 20260506151204 | 68 | 313 | 0.0 | 4.3 | 0.00 | 0.59 | 0.06 | 60 | 1003.3 |
| 20260506150704 | 68 | 313 | 0.0 | 4.3 | 0.00 | 0.59 | 0.06 | 58 | 1003.4 |
| 20260506150204 | 68 | 313 | 0.0 | 4.3 | 0.00 | 0.59 | 0.06 | 59 | 1003.4 |
| 20260506145704 | 68 | 27 | 0.0 | 3.5 | 0.00 | 0.59 | 0.06 | 58 | 1003.4 |
| 20260506145204 | 68 | 259 | 0.0 | 3.5 | 0.00 | 0.59 | 0.06 | 58 | 1003.4 |
| 20260506144204 | 68 | 281 | 0.0 | 3.5 | 0.00 | 0.59 | 0.06 | 58 | 1003.4 |
| 20260506143205 | 68 | 217 | 0.0 | 1.7 | 0.00 | 0.59 | 0.06 | 57 | 1003.5 |
| 20260506142704 | 68 | 327 | 0.0 | 4.3 | 0.00 | 0.59 | 0.06 | 58 | 1003.4 |
| 20260506142204 | 68 | 281 | 0.0 | 4.3 | 0.00 | 0.59 | 0.06 | 58 | 1003.4 |
| 20260506141704 | 68 | 273 | 0.0 | 4.3 | 0.00 | 0.59 | 0.06 | 62 | 1003.4 |
| 20260506141204 | 68 | 271 | 0.0 | 0.9 | 0.00 | 0.59 | 0.06 | 61 | 1003.5 |
| 20260506140704 | 68 | 313 | 0.0 | 0.0 | 0.00 | 0.59 | 0.06 | 60 | 1003.6 |
| 20260506140204 | 69 | 301 | 0.0 | 3.5 | 0.00 | 0.59 | 0.06 | 65 | 1003.5 |
| 20260506135704 | 68 | 301 | 0.0 | 7.8 | 0.00 | 0.59 | 0.06 | 63 | 1003.5 |
| 20260506135204 | 68 | 300 | 0.9 | 7.8 | 0.00 | 0.59 | 0.06 | 62 | 1003.6 |
| 20260506134704 | 68 | 297 | 0.9 | 5.2 | 0.00 | 0.59 | 0.06 | 62 | 1003.6 |
| 20260506134204 | 69 | 276 | 0.0 | 3.5 | 0.00 | 0.59 | 0.06 | 60 | 1003.6 |
| 20260506133703 | 69 | 0 | 0.0 | 3.5 | 0.00 | 0.59 | 0.06 | 65 | 1003.8 |
| 20260506133204 | 69 | 303 | 0.0 | 0.9 | 0.00 | 0.59 | 0.06 | 66 | 1003.7 |
| 20260506132704 | 68 | 314 | 0.0 | 0.0 | 0.00 | 0.59 | 0.06 | 65 | 1003.7 |
| 20260506132204 | 67 | 306 | 0.0 | 0.0 | 0.00 | 0.59 | 0.06 | 65 | 1003.6 |
| 20260506131703 | 67 | 321 | 0.0 | 0.0 | 0.00 | 0.59 | 0.06 | 65 | 1003.7 |
| 20260506131205 | 67 | 321 | 0.0 | 0.0 | 0.00 | 0.59 | 0.06 | 63 | 1003.7 |
| 20260506130704 | 68 | 302 | 0.0 | 0.0 | 0.00 | 0.59 | 0.06 | 64 | 1003.7 |
| 20260506125704 | 68 | 345 | 0.0 | 0.0 | 0.00 | 0.59 | 0.06 | 65 | 1003.8 |
| 20260506125204 | 68 | 279 | 0.0 | 0.0 | 0.00 | 0.59 | 0.06 | 63 | 1003.9 |
| 20260506124704 | 68 | 266 | 0.0 | 0.0 | 0.00 | 0.59 | 0.06 | 63 | 1003.9 |
| 20260506123707 | 67 | 294 | 0.0 | 0.0 | 0.00 | 0.59 | 0.06 | 63 | 1003.9 |
| 20260506123205 | 67 | 344 | 0.0 | 0.0 | 0.00 | 0.59 | 0.06 | 64 | 1003.9 |
| 20260506122705 | 67 | 344 | 0.0 | 0.0 | 0.00 | 0.59 | 0.06 | 63 | 1003.9 |
| 20260506122204 | 67 | 302 | 0.0 | 0.9 | 0.00 | 0.59 | 0.06 | 60 | 1003.9 |
| 20260506121704 | 68 | 355 | 0.0 | 0.9 | 0.00 | 0.59 | 0.06 | 62 | 1003.9 |
| 20260506121229 | 68 | 320 | 0.0 | 5.2 | 0.00 | 0.59 | 0.06 | 60 | 1003.9 |
| 20260506120204 | 68 | 294 | 0.0 | 5.2 | 0.00 | 0.59 | 0.06 | 62 | 1003.9 |
| 20260506115704 | 68 | 311 | 0.0 | 1.7 | 0.00 | 0.59 | 0.06 | 65 | 1003.9 |
| 20260506115204 | 68 | 277 | 0.0 | 8.7 | 0.00 | 0.59 | 0.06 | 65 | 1003.9 |
| 20260506114704 | 68 | 284 | 0.0 | 8.7 | 0.00 | 0.59 | 0.06 | 65 | 1004.0 |
| 20260506114204 | 68 | 275 | 0.0 | 9.6 | 0.00 | 0.59 | 0.06 | 62 | 1003.9 |
| 20260506113204 | 68 | 288 | 0.9 | 11.3 | 0.00 | 0.59 | 0.06 | 61 | 1003.9 |
| 20260506112704 | 68 | 348 | 0.9 | 11.3 | 0.00 | 0.59 | 0.06 | 59 | 1004.0 |
| 20260506112205 | 68 | 208 | 0.9 | 8.7 | 0.00 | 0.59 | 0.06 | 64 | 1003.8 |
| 20260506111704 | 67 | 263 | 0.9 | 8.7 | 0.00 | 0.59 | 0.06 | 63 | 1004.0 |
| 20260506110704 | 67 | 290 | 0.9 | 7.0 | 0.00 | 0.59 | 0.06 | 66 | 1004.0 |
| 20260506110225 | 67 | 143 | 0.0 | 0.9 | 0.00 | 0.59 | 0.06 | 64 | 1004.0 |
| 20260506105704 | 67 | 319 | 0.0 | 0.9 | 0.00 | 0.59 | 0.06 | 64 | 1004.1 |
| 20260506105205 | 67 | 229 | 0.0 | 4.3 | 0.00 | 0.59 | 0.06 | 66 | 1004.1 |
| 20260506104704 | 66 | 263 | 0.0 | 13.9 | 0.00 | 0.59 | 0.06 | 70 | 1004.2 |
| 20260506104204 | 65 | 301 | 0.9 | 13.9 | 0.00 | 0.59 | 0.06 | 69 | 1004.3 |
| 20260506103704 | 65 | 269 | 0.9 | 9.6 | 0.00 | 0.59 | 0.06 | 67 | 1004.3 |
| 20260506103207 | 65 | 90 | 0.9 | 9.6 | 0.00 | 0.59 | 0.06 | 69 | 1004.2 |
| 20260506102704 | 65 | 19 | 0.9 | 9.6 | 0.00 | 0.59 | 0.06 | 69 | 1004.2 |
| 20260506102207 | 65 | 355 | 0.0 | 0.0 | 0.00 | 0.59 | 0.06 | 71 | 1004.2 |
| 20260506101704 | 64 | 25 | 0.0 | 0.9 | 0.00 | 0.59 | 0.06 | 71 | 1004.3 |
| 20260506101204 | 64 | 227 | 0.0 | 9.6 | 0.00 | 0.59 | 0.06 | 71 | 1004.2 |